.
WxDataArchive / Data Records for 2009-11-20
2009-11-19 November 2009 2009-11-21

Data Records for Friday, 20 November 2009

Time	Temp	Chill	HIndex	Humid	Dewpt	 Wind 	HiWind	WindDir	Rain 	Barom 
-----	----	-----	------	-----	-----	------	------	-------	-----	----- 
00:00	43.8	43.8	43.8	91	41.3	2	7	248	0.00	30.126 
00:05	43.8	43.8	43.8	90	41.1	3	7	248	0.00	30.126 
00:10	43.8	43.8	43.8	90	41.1	2	5	248	0.00	30.126 
00:15	43.8	43.8	43.8	90	41.1	2	6	248	0.00	30.125 
00:20	43.8	43.8	43.8	90	41.1	2	5	248	0.00	30.125 
00:25	43.8	43.8	43.8	90	41.1	2	4	248	0.00	30.125 
00:30	43.8	43.8	43.8	89	40.8	1	4	248	0.00	30.128 
00:35	43.8	43.8	43.8	89	40.8	2	4	248	0.00	30.128 
00:40	43.8	43.8	43.8	89	40.8	2	5	248	0.00	30.128 
00:45	43.8	43.8	43.8	89	40.8	2	5	248	0.00	30.126 
00:50	43.6	43.6	43.6	89	40.6	1	5	248	0.00	30.126 
00:55	43.6	43.6	43.6	89	40.6	1	4	225	0.00	30.126 
01:00	43.6	43.6	43.6	89	40.6	1	4	225	0.00	30.126 
01:05	43.5	43.5	43.5	89	40.5	2	5	248	0.00	30.126 
01:10	43.5	43.5	43.5	89	40.5	1	5	248	0.00	30.126 
01:15	43.5	43.5	43.5	89	40.5	1	6	248	0.00	30.131 
01:20	43.3	43.3	43.3	89	40.3	1	6	248	0.00	30.131 
01:25	43.3	43.3	43.3	90	40.6	1	4	248	0.00	30.131 
01:30	43.3	43.3	43.3	90	40.6	1	4	248	0.00	30.132 
01:35	43.3	43.3	43.3	90	40.6	1	4	248	0.00	30.132 
01:40	43.3	43.3	43.3	90	40.6	2	7	248	0.00	30.132 
01:45	43.3	43.3	43.3	90	40.6	2	4	248	0.00	30.139 
01:50	43.2	43.2	43.2	90	40.5	2	4	248	0.00	30.139 
01:55	43.1	43.1	43.1	89	40.1	1	5	248	0.00	30.139 
02:00	43.1	43.1	43.1	89	40.1	2	5	248	0.00	30.139 
02:05	42.9	42.9	42.9	88	39.6	1	3	270	0.00	30.139 
02:10	42.8	42.8	42.8	88	39.5	1	5	248	0.00	30.139 
02:15	42.8	42.8	42.8	88	39.5	1	4	270	0.00	30.139 
02:20	42.6	42.6	42.6	87	39.0	1	4	248	0.00	30.139 
02:25	42.3	42.3	42.3	87	38.7	1	3	248	0.00	30.139 
02:30	42.2	42.2	42.2	87	38.6	1	4	248	0.00	30.143 
02:35	42.2	42.2	42.2	88	38.9	2	4	248	0.00	30.143 
02:40	42.2	42.2	42.2	88	38.9	1	4	248	0.00	30.143 
02:45	42.1	42.1	42.1	88	38.8	2	4	248	0.00	30.143 
02:50	41.9	41.9	41.9	88	38.6	1	4	248	0.00	30.143 
02:55	41.8	41.8	41.8	88	38.5	2	4	248	0.00	30.143 
03:00	41.5	41.5	41.5	88	38.2	1	4	248	0.00	30.144 
03:05	41.3	41.3	41.3	88	38.0	1	4	248	0.00	30.144 
03:10	41.2	41.2	41.2	89	38.2	1	3	248	0.00	30.144 
03:15	41.1	41.1	41.1	89	38.1	2	5	248	0.00	30.146 
03:20	40.9	40.9	40.9	89	37.9	1	4	248	0.00	30.146 
03:25	40.8	40.8	40.8	89	37.8	1	4	248	0.00	30.146 
03:30	40.6	40.6	40.6	90	37.9	1	4	248	0.00	30.145 
03:35	40.6	40.6	40.6	90	37.9	1	3	248	0.00	30.145 
03:40	40.3	40.3	40.3	90	37.6	1	3	248	0.00	30.145 
03:45	40.3	40.3	40.3	91	37.9	0	2	248	0.00	30.147 
03:50	40.3	40.3	40.3	91	37.9	1	2	248	0.00	30.147 
03:55	40.5	40.5	40.5	91	38.1	2	7	248	0.00	30.147 
04:00	40.5	40.5	40.5	91	38.1	1	5	248	0.00	30.146 
04:05	40.6	40.6	40.6	91	38.2	2	9	248	0.00	30.146 
04:10	40.6	40.6	40.6	91	38.2	1	5	248	0.00	30.146 
04:15	40.8	40.8	40.8	91	38.4	2	5	248	0.00	30.147 
04:20	40.8	40.8	40.8	91	38.4	1	4	248	0.00	30.147 
04:25	40.8	40.8	40.8	91	38.4	2	5	248	0.00	30.147 
04:30	40.8	40.8	40.8	91	38.4	2	5	248	0.00	30.148 
04:35	40.6	40.6	40.6	91	38.2	1	4	270	0.00	30.148 
04:40	40.6	40.6	40.6	91	38.2	1	4	248	0.00	30.148 
04:45	40.6	40.6	40.6	91	38.2	2	5	248	0.00	30.149 
04:50	40.8	40.8	40.8	91	38.4	1	4	248	0.00	30.149 
04:55	40.8	40.8	40.8	92	38.7	1	4	248	0.00	30.149 
05:00	40.9	40.9	40.9	92	38.8	1	3	248	0.00	30.152 
05:05	41.1	41.1	41.1	92	39.0	1	6	248	0.00	30.152 
05:10	41.2	41.2	41.2	92	39.1	2	5	248	0.00	30.152 
05:15	41.2	41.2	41.2	92	39.1	1	4	248	0.00	30.155 
05:20	41.2	41.2	41.2	92	39.1	2	6	248	0.00	30.155 
05:25	41.3	41.3	41.3	91	38.9	2	7	248	0.00	30.155 
05:30	41.3	41.3	41.3	91	38.9	1	4	248	0.00	30.155 
05:35	41.3	41.3	41.3	91	38.9	1	4	248	0.00	30.155 
05:40	41.5	41.5	41.5	91	39.1	1	5	248	0.00	30.155 
05:45	41.5	41.5	41.5	91	39.1	2	6	248	0.00	30.158 
05:50	41.5	41.5	41.5	91	39.1	1	3	248	0.00	30.158 
05:55	41.5	41.5	41.5	91	39.1	2	4	248	0.00	30.158 
06:00	41.6	41.6	41.6	91	39.2	2	6	248	0.00	30.159 
06:05	41.6	41.6	41.6	91	39.2	2	4	225	0.00	30.159 
06:10	41.5	41.5	41.5	91	39.1	2	4	248	0.00	30.159 
06:15	41.5	41.5	41.5	91	39.1	2	6	248	0.00	30.162 
06:20	41.5	41.5	41.5	91	39.1	2	9	248	0.00	30.162 
06:25	41.5	41.5	41.5	91	39.1	1	5	248	0.00	30.162 
06:30	41.5	41.5	41.5	91	39.1	1	4	248	0.00	30.162 
06:35	41.5	41.5	41.5	91	39.1	1	4	248	0.00	30.162 
06:40	41.5	41.5	41.5	90	38.8	2	7	248	0.00	30.162 
06:45	41.5	41.5	41.5	90	38.8	2	6	248	0.00	30.161 
06:50	41.5	41.5	41.5	90	38.8	2	6	248	0.00	30.161 
06:55	41.5	41.5	41.5	90	38.8	3	6	248	0.00	30.161 
07:00	41.5	41.5	41.5	90	38.8	1	4	248	0.00	30.159 
07:05	41.5	41.5	41.5	90	38.8	2	4	248	0.00	30.159 
07:10	41.6	41.6	41.6	89	38.6	2	5	248	0.00	30.159 
07:15	41.6	41.6	41.6	89	38.6	2	5	248	0.00	30.160 
07:20	41.8	41.8	41.8	88	38.5	1	4	248	0.00	30.160 
07:25	41.8	41.8	41.8	88	38.5	2	4	248	0.00	30.160 
07:30	41.8	41.8	41.8	88	38.5	1	3	248	0.00	30.164 
07:35	41.9	41.9	41.9	88	38.6	2	4	248	0.00	30.164 
07:40	41.9	41.9	41.9	87	38.3	2	7	248	0.00	30.164 
07:45	42.1	42.1	42.1	87	38.5	2	6	248	0.00	30.163 
07:50	42.1	42.1	42.1	87	38.5	2	6	248	0.00	30.163 
07:55	42.1	42.1	42.1	87	38.5	1	4	248	0.00	30.163 
08:00	42.1	42.1	42.1	87	38.5	1	6	248	0.00	30.154 
08:05	42.1	42.1	42.1	87	38.5	2	6	270	0.00	30.154 
08:10	42.2	42.2	42.2	86	38.3	2	3	248	0.00	30.154 
08:15	42.2	42.2	42.2	86	38.3	1	5	248	0.00	30.172 
08:20	42.2	42.2	42.2	86	38.3	2	5	248	0.00	30.172 
08:25	42.2	42.2	42.2	86	38.3	1	4	248	0.00	30.172 
08:30	42.2	42.2	42.2	86	38.3	2	4	248	0.00	30.176 
08:35	42.3	42.3	42.3	87	38.7	1	4	248	0.00	30.176 
08:40	42.3	42.3	42.3	87	38.7	2	5	248	0.00	30.176 
08:45	42.3	42.3	42.3	86	38.4	2	5	248	0.00	30.177 
08:50	42.5	42.5	42.5	86	38.6	2	6	248	0.00	30.177 
08:55	42.6	42.6	42.6	85	38.4	2	6	248	0.00	30.177 
09:00	42.8	42.8	42.8	85	38.6	3	6	248	0.00	30.180 
09:05	42.9	42.9	42.9	85	38.7	2	5	248	0.00	30.180 
09:10	43.1	43.1	43.1	85	38.9	3	9	248	0.00	30.180 
09:15	43.3	43.3	43.3	84	38.8	2	6	270	0.00	30.178 
09:20	43.6	43.6	43.6	84	39.1	2	6	248	0.00	30.178 
09:25	43.8	43.8	43.8	84	39.3	2	5	248	0.00	30.178 
09:30	43.8	41.7	43.8	83	39.0	4	9	248	0.00	30.177 
09:35	43.5	41.4	43.5	83	38.7	4	10	248	0.00	30.177 
09:40	43.3	43.3	43.3	84	38.8	3	10	248	0.00	30.177 
09:45	43.5	43.5	43.5	84	39.0	3	7	248	0.00	30.185 
09:50	43.9	43.9	43.9	84	39.4	3	7	248	0.00	30.185 
09:55	44.1	44.1	44.1	84	39.6	2	7	248	0.00	30.185 
10:00	44.2	44.2	44.2	83	39.4	2	6	270	0.00	30.179 
10:05	44.3	44.3	44.3	83	39.5	2	6	270	0.00	30.179 
10:10	44.2	44.2	44.2	82	39.1	3	7	248	0.00	30.179 
10:15	44.5	44.5	44.5	83	39.7	2	4	248	0.00	30.187 
10:20	44.6	44.6	44.6	82	39.4	3	8	248	0.00	30.187 
10:25	44.8	44.8	44.8	83	40.0	2	5	248	0.00	30.187 
10:30	45.2	45.2	45.2	82	40.0	2	6	248	0.00	30.190 
10:35	45.4	45.4	45.4	81	39.9	2	4	248	0.00	30.190 
10:40	45.5	45.5	45.5	81	40.0	2	4	248	0.00	30.190 
10:45	45.7	45.7	45.7	81	40.2	3	7	248	0.00	30.187 
10:50	45.8	45.8	45.8	81	40.3	3	7	248	0.00	30.187 
10:55	46.2	46.2	46.2	81	40.7	3	5	248	0.00	30.187 
11:00	46.4	46.4	46.4	80	40.6	2	5	248	0.00	30.186 
11:05	46.2	46.2	46.2	79	40.1	3	9	270	0.00	30.186 
11:10	46.2	46.2	46.2	80	40.4	2	4	248	0.00	30.186 
11:15	46.5	46.5	46.5	80	40.7	2	4	248	0.00	30.185 
11:20	46.8	46.8	46.8	80	41.0	3	7	248	0.00	30.185 
11:25	47.0	47.0	47.0	79	40.8	2	7	270	0.00	30.185 
11:30	47.4	47.4	47.4	80	41.5	1	5	248	0.00	30.183 
11:35	47.9	47.9	47.9	79	41.7	2	4	248	0.00	30.183 
11:40	48.2	48.2	48.2	78	41.7	1	3	315	0.00	30.183 
11:45	48.3	48.3	48.3	77	41.4	2	6	248	0.00	30.181 
11:50	48.5	48.5	48.5	77	41.6	3	6	248	0.00	30.181 
11:55	48.9	48.9	48.9	76	41.7	2	6	248	0.00	30.181 
12:00	49.1	49.1	49.1	76	41.9	3	6	248	0.00	30.173 
12:05	48.9	48.9	48.9	75	41.3	3	7	248	0.00	30.173 
12:10	49.2	49.2	49.2	76	42.0	2	6	248	0.00	30.173 
12:15	49.4	49.4	49.4	76	42.2	3	5	248	0.00	30.171 
12:20	49.5	49.5	49.5	75	41.9	3	6	248	0.00	30.171 
12:25	49.5	49.5	49.5	75	41.9	2	7	248	0.00	30.171 
12:30	49.5	49.5	49.5	75	41.9	2	7	248	0.00	30.168 
12:35	49.5	49.5	49.5	76	42.3	2	4	248	0.00	30.168 
12:40	50.1	50.1	50.1	76	42.8	1	5	248	0.00	30.168 
12:45	50.4	50.4	50.4	73	42.1	2	5	248	0.00	30.164 
12:50	50.8	50.8	50.8	73	42.5	2	4	248	0.00	30.164 
12:55	51.1	51.1	51.1	73	42.7	2	4	248	0.00	30.164 
13:00	51.6	51.6	51.6	73	43.2	2	4	270	0.00	30.160 
13:05	51.7	51.7	51.7	71	42.6	2	4	270	0.00	30.160 
13:10	51.7	51.7	51.7	71	42.6	2	6	270	0.00	30.160 
13:15	51.6	51.6	51.6	71	42.5	3	7	248	0.00	30.155 
13:20	51.6	51.6	51.6	71	42.5	1	6	248	0.00	30.155 
13:25	51.9	51.9	51.9	72	43.2	2	4	270	0.00	30.155 
13:30	52.2	52.2	52.2	70	42.7	2	5	248	0.00	30.154 
13:35	52.6	52.6	52.6	69	42.7	1	5	248	0.00	30.154 
13:40	53.2	53.2	53.2	69	43.3	1	6	225	0.00	30.154 
13:45	53.3	53.3	53.3	65	41.8	2	4	270	0.00	30.152 
13:50	53.3	53.3	53.3	67	42.6	2	5	292	0.00	30.152 
13:55	53.2	53.2	53.2	66	42.1	2	4	270	0.00	30.152 
14:00	53.2	53.2	53.2	66	42.1	1	4	248	0.00	30.153 
14:05	53.2	53.2	53.2	65	41.7	2	6	248	0.00	30.153 
14:10	52.9	52.9	52.9	65	41.5	2	4	248	0.00	30.153 
14:15	52.6	52.6	52.6	66	41.6	1	3	248	0.00	30.152 
14:20	52.6	52.6	52.6	66	41.6	1	4	248	0.00	30.152 
14:25	52.9	52.9	52.9	67	42.2	1	5	248	0.00	30.152 
14:30	53.3	53.3	53.3	65	41.8	2	5	248	0.00	30.152 
14:35	53.5	53.5	53.5	64	41.6	2	4	248	0.00	30.152 
14:40	53.3	53.3	53.3	63	41.0	3	7	248	0.00	30.152 
14:45	53.1	53.1	53.1	64	41.2	2	6	248	0.00	30.152 
14:50	53.3	53.3	53.3	64	41.4	2	4	270	0.00	30.152 
14:55	53.3	53.3	53.3	64	41.4	2	9	248	0.00	30.152 
15:00	53.3	53.3	53.3	64	41.4	1	3	248	0.00	30.151 
15:05	53.3	53.3	53.3	64	41.4	2	5	248	0.00	30.151 
15:10	53.2	53.2	53.2	64	41.3	2	5	248	0.00	30.151 
15:15	53.2	53.2	53.2	64	41.3	3	7	248	0.00	30.151 
15:20	53.2	53.2	53.2	64	41.3	1	4	248	0.00	30.151 
15:25	53.2	53.2	53.2	65	41.7	1	2	225	0.00	30.151 
15:30	53.2	53.2	53.2	64	41.3	2	6	225	0.00	30.151 
15:35	53.2	53.2	53.2	64	41.3	1	3	248	0.00	30.151 
15:40	53.3	53.3	53.3	64	41.4	1	5	248	0.00	30.151 
15:45	53.2	53.2	53.2	64	41.3	3	6	248	0.00	30.153 
15:50	52.9	52.9	52.9	64	41.1	2	5	248	0.00	30.153 
15:55	52.8	52.8	52.8	63	40.6	2	6	248	0.00	30.153 
16:00	52.6	52.6	52.6	64	40.8	1	3	248	0.00	30.155 
16:05	52.5	52.5	52.5	64	40.7	2	7	248	0.00	30.155 
16:10	52.3	52.3	52.3	65	40.9	1	3	248	0.00	30.155 
16:15	52.2	52.2	52.2	65	40.8	1	5	248	0.00	30.159 
16:20	52.0	52.0	52.0	65	40.6	1	4	248	0.00	30.159 
16:25	52.0	52.0	52.0	65	40.6	1	4	248	0.00	30.159 
16:30	52.0	52.0	52.0	65	40.6	1	4	248	0.00	30.158 
16:35	51.9	51.9	51.9	65	40.5	1	4	248	0.00	30.158 
16:40	51.9	51.9	51.9	65	40.5	1	3	248	0.00	30.158 
16:45	51.7	51.7	51.7	65	40.3	1	4	248	0.00	30.155 
16:50	51.6	51.6	51.6	66	40.6	1	3	248	0.00	30.155 
16:55	51.4	51.4	51.4	67	40.8	1	3	248	0.00	30.155 
17:00	51.3	51.3	51.3	67	40.7	1	4	248	0.00	30.154 
17:05	51.0	51.0	51.0	67	40.4	0	3	248	0.00	30.154 
17:10	50.7	50.7	50.7	68	40.5	1	4	270	0.00	30.154 
17:15	50.4	50.4	50.4	69	40.6	0	2	270	0.00	30.157 
17:20	50.1	50.1	50.1	69	40.3	1	3	270	0.00	30.157 
17:25	49.8	49.8	49.8	70	40.4	1	3	248	0.00	30.157 
17:30	49.6	49.6	49.6	70	40.2	1	4	248	0.00	30.167 
17:35	49.5	49.5	49.5	71	40.5	0	2	248	0.00	30.167 
17:40	49.4	49.4	49.4	71	40.4	1	3	248	0.00	30.167 
17:45	49.2	49.2	49.2	72	40.6	1	4	248	0.00	30.170 
17:50	48.9	48.9	48.9	72	40.3	0	1	248	0.00	30.170 
17:55	48.8	48.8	48.8	73	40.5	0	2	248	0.00	30.170 
18:00	48.6	48.6	48.6	73	40.3	1	4	248	0.00	30.175 
18:05	48.5	48.5	48.5	73	40.2	0	1	248	0.00	30.175 
18:10	48.0	48.0	48.0	74	40.1	0	1	248	0.00	30.175 
18:15	47.7	47.7	47.7	74	39.8	0	0	---	0.00	30.171 
18:20	47.3	47.3	47.3	76	40.1	0	2	248	0.00	30.171 
18:25	47.1	47.1	47.1	76	39.9	0	1	248	0.00	30.171 
18:30	46.8	46.8	46.8	77	40.0	0	0	---	0.00	30.176 
18:35	46.7	46.7	46.7	77	39.9	0	1	248	0.00	30.176 
18:40	46.5	46.5	46.5	78	40.0	0	2	248	0.00	30.176 
18:45	46.5	46.5	46.5	78	40.0	0	1	248	0.00	30.183 
18:50	46.5	46.5	46.5	78	40.0	0	1	248	0.00	30.183 
18:55	46.4	46.4	46.4	78	39.9	0	0	---	0.00	30.183 
19:00	46.4	46.4	46.4	79	40.2	0	1	248	0.00	30.186 
19:05	46.1	46.1	46.1	79	40.0	0	1	248	0.00	30.186 
19:10	46.0	46.0	46.0	79	39.9	0	0	---	0.00	30.186 
19:15	45.8	45.8	45.8	80	40.0	0	1	248	0.00	30.189 
19:20	45.8	45.8	45.8	80	40.0	0	1	248	0.00	30.189 
19:25	45.8	45.8	45.8	81	40.3	0	1	248	0.00	30.189 
19:30	45.8	45.8	45.8	81	40.3	0	1	248	0.00	30.184 
19:35	45.8	45.8	45.8	81	40.3	0	1	248	0.00	30.184 
19:40	45.8	45.8	45.8	81	40.3	0	1	248	0.00	30.184 
19:45	45.8	45.8	45.8	81	40.3	0	0	---	0.00	30.182 
19:50	45.7	45.7	45.7	81	40.2	0	0	---	0.00	30.182 
19:55	45.5	45.5	45.5	81	40.0	0	0	---	0.00	30.182 
20:00	45.4	45.4	45.4	81	39.9	0	1	248	0.00	30.191 
20:05	45.2	45.2	45.2	81	39.7	0	1	248	0.00	30.191 
20:10	45.2	45.2	45.2	81	39.7	0	1	248	0.00	30.191 
20:15	45.2	45.2	45.2	81	39.7	0	1	248	0.00	30.191 
20:20	45.2	45.2	45.2	82	40.0	0	1	248	0.00	30.191 
20:25	45.2	45.2	45.2	81	39.7	0	1	248	0.00	30.191 
20:30	45.2	45.2	45.2	81	39.7	0	0	---	0.00	30.189 
20:35	45.1	45.1	45.1	81	39.6	0	0	---	0.00	30.189 
20:40	44.8	44.8	44.8	81	39.3	0	0	---	0.00	30.189 
20:45	44.6	44.6	44.6	82	39.4	0	1	248	0.00	30.189 
20:50	44.5	44.5	44.5	82	39.4	0	1	248	0.00	30.189 
20:55	44.5	44.5	44.5	82	39.4	0	0	---	0.00	30.189 
21:00	44.3	44.3	44.3	82	39.2	0	0	---	0.00	30.187 
21:05	44.2	44.2	44.2	83	39.4	0	0	---	0.00	30.187 
21:10	44.1	44.1	44.1	83	39.3	0	0	---	0.00	30.187 
21:15	44.1	44.1	44.1	83	39.3	0	0	---	0.00	30.179 
21:20	44.1	44.1	44.1	83	39.3	0	1	248	0.00	30.179 
21:25	44.1	44.1	44.1	83	39.3	0	0	---	0.00	30.179 
21:30	44.1	44.1	44.1	83	39.3	0	1	248	0.00	30.177 
21:35	44.1	44.1	44.1	83	39.3	0	0	---	0.00	30.177 
21:40	44.1	44.1	44.1	83	39.3	0	1	248	0.00	30.177 
21:45	44.1	44.1	44.1	83	39.3	0	1	248	0.00	30.185 
21:50	44.1	44.1	44.1	83	39.3	0	1	248	0.00	30.185 
21:55	44.1	44.1	44.1	83	39.3	0	2	248	0.00	30.185 
22:00	44.1	44.1	44.1	83	39.3	0	1	248	0.00	30.182 
22:05	43.9	43.9	43.9	83	39.1	0	0	---	0.00	30.182 
22:10	43.9	43.9	43.9	83	39.1	0	0	---	0.00	30.182 
22:15	43.8	43.8	43.8	83	39.0	0	0	---	0.00	30.179 
22:20	43.6	43.6	43.6	83	38.8	0	0	---	0.00	30.179 
22:25	43.5	43.5	43.5	83	38.7	0	0	---	0.00	30.179 
22:30	43.5	43.5	43.5	83	38.7	0	0	---	0.00	30.187 
22:35	43.5	43.5	43.5	84	39.0	0	2	248	0.00	30.187 
22:40	43.5	43.5	43.5	83	38.7	0	1	248	0.00	30.187 
22:45	43.3	43.3	43.3	83	38.5	0	0	---	0.00	30.188 
22:50	43.1	43.1	43.1	83	38.3	0	0	---	0.00	30.188 
22:55	42.9	42.9	42.9	84	38.4	0	0	---	0.00	30.188 
23:00	42.8	42.8	42.8	84	38.3	0	0	---	0.00	30.187 
23:05	42.5	42.5	42.5	84	38.0	0	0	---	0.00	30.187 
23:10	42.2	42.2	42.2	84	37.7	0	0	---	0.00	30.187 
23:15	42.1	42.1	42.1	84	37.6	0	0	---	0.00	30.187 
23:20	41.8	41.8	41.8	85	37.6	0	0	---	0.00	30.187 
23:25	41.5	41.5	41.5	85	37.3	0	0	---	0.00	30.187 
23:30	41.3	41.3	41.3	86	37.4	0	1	248	0.00	30.188 
23:35	41.3	41.3	41.3	86	37.4	0	1	248	0.00	30.188 
23:40	41.5	41.5	41.5	87	37.9	0	1	248	0.00	30.188 
23:45	41.6	41.6	41.6	87	38.0	0	0	---	0.00	30.189 
23:50	41.6	41.6	41.6	87	38.0	0	1	248	0.00	30.189 
23:55	41.6	41.6	41.6	87	38.0	0	0	---	0.00	30.189 

CoCoRaHS
IN-AL-39
A2 Web Hosting
Creative Commons License
GoDaddy
search engine by freefind advanced

loaded 2018-11-15 16:27:45 • last modified 2010-11-18 10:43:29
Privacy PolicyDisclaimer
• wx.awcolley.com is powered by PmWiki v.2002016 •
• all content (unless otherwise noted) © 2018 A W Colley